sensor_id;sensor_type;location;lat;lon;timestamp;P1;durP1;ratioP1;P2;durP2;ratioP2
49340;SDS011;35209;51.050;13.678;2023-03-14T00:04:31;1.52;;;0.63;;
49340;SDS011;35209;51.050;13.678;2023-03-14T00:09:33;0.70;;;0.70;;
49340;SDS011;35209;51.050;13.678;2023-03-14T00:14:34;1.17;;;0.90;;
49340;SDS011;35209;51.050;13.678;2023-03-14T00:19:36;2.78;;;1.20;;
49340;SDS011;35209;51.050;13.678;2023-03-14T00:24:38;1.35;;;0.90;;
49340;SDS011;35209;51.050;13.678;2023-03-14T00:29:39;1.83;;;1.13;;
49340;SDS011;35209;51.050;13.678;2023-03-14T00:34:43;2.00;;;1.30;;
49340;SDS011;35209;51.050;13.678;2023-03-14T00:39:45;1.50;;;1.40;;
49340;SDS011;35209;51.050;13.678;2023-03-14T00:44:47;2.75;;;1.55;;
49340;SDS011;35209;51.050;13.678;2023-03-14T00:49:49;2.33;;;1.40;;
49340;SDS011;35209;51.050;13.678;2023-03-14T00:54:52;2.10;;;1.42;;
49340;SDS011;35209;51.050;13.678;2023-03-14T00:59:54;1.85;;;1.65;;
49340;SDS011;35209;51.050;13.678;2023-03-14T01:04:56;2.20;;;1.52;;
49340;SDS011;35209;51.050;13.678;2023-03-14T01:09:58;1.45;;;1.35;;
49340;SDS011;35209;51.050;13.678;2023-03-14T01:15:00;1.98;;;1.30;;
49340;SDS011;35209;51.050;13.678;2023-03-14T01:20:01;1.75;;;1.08;;
49340;SDS011;35209;51.050;13.678;2023-03-14T01:25:06;0.95;;;0.88;;
49340;SDS011;35209;51.050;13.678;2023-03-14T01:30:11;1.17;;;0.65;;
49340;SDS011;35209;51.050;13.678;2023-03-14T01:35:13;0.90;;;0.90;;
49340;SDS011;35209;51.050;13.678;2023-03-14T01:40:15;1.20;;;1.10;;
49340;SDS011;35209;51.050;13.678;2023-03-14T01:50:58;1.70;;;1.60;;
49340;SDS011;35209;51.050;13.678;2023-03-14T01:56:02;1.98;;;1.60;;
49340;SDS011;35209;51.050;13.678;2023-03-14T02:01:05;1.63;;;1.50;;
49340;SDS011;35209;51.050;13.678;2023-03-14T02:06:08;1.08;;;1.00;;
49340;SDS011;35209;51.050;13.678;2023-03-14T02:11:13;1.60;;;1.10;;
49340;SDS011;35209;51.050;13.678;2023-03-14T02:16:29;1.00;;;0.90;;
49340;SDS011;35209;51.050;13.678;2023-03-14T02:22:00;0.80;;;0.80;;
49340;SDS011;35209;51.050;13.678;2023-03-14T02:32:21;1.95;;;0.65;;
49340;SDS011;35209;51.050;13.678;2023-03-14T02:37:27;0.70;;;0.68;;
49340;SDS011;35209;51.050;13.678;2023-03-14T02:42:40;0.73;;;0.43;;
49340;SDS011;35209;51.050;13.678;2023-03-14T02:47:52;0.30;;;0.30;;
49340;SDS011;35209;51.050;13.678;2023-03-14T02:53:00;0.30;;;0.28;;
49340;SDS011;35209;51.050;13.678;2023-03-14T02:58:02;0.20;;;0.20;;
49340;SDS011;35209;51.050;13.678;2023-03-14T03:03:05;0.30;;;0.20;;
49340;SDS011;35209;51.050;13.678;2023-03-14T03:08:09;0.15;;;0.15;;
49340;SDS011;35209;51.050;13.678;2023-03-14T03:13:12;0.13;;;0.10;;
49340;SDS011;35209;51.050;13.678;2023-03-14T03:18:15;0.30;;;0.20;;
49340;SDS011;35209;51.050;13.678;2023-03-14T03:23:17;0.50;;;0.10;;
49340;SDS011;35209;51.050;13.678;2023-03-14T03:28:19;0.40;;;0.22;;
49340;SDS011;35209;51.050;13.678;2023-03-14T03:33:21;0.25;;;0.25;;
49340;SDS011;35209;51.050;13.678;2023-03-14T03:38:25;0.30;;;0.20;;
49340;SDS011;35209;51.050;13.678;2023-03-14T03:43:28;0.13;;;0.10;;
49340;SDS011;35209;51.050;13.678;2023-03-14T03:48:31;0.40;;;0.20;;
49340;SDS011;35209;51.050;13.678;2023-03-14T03:53:36;0.35;;;0.30;;
49340;SDS011;35209;51.050;13.678;2023-03-14T03:58:43;0.20;;;0.20;;
49340;SDS011;35209;51.050;13.678;2023-03-14T04:03:44;0.10;;;0.10;;
49340;SDS011;35209;51.050;13.678;2023-03-14T04:08:47;0.73;;;0.17;;
49340;SDS011;35209;51.050;13.678;2023-03-14T04:14:08;0.15;;;0.10;;
49340;SDS011;35209;51.050;13.678;2023-03-14T04:19:10;1.02;;;0.22;;
49340;SDS011;35209;51.050;13.678;2023-03-14T04:24:12;0.35;;;0.20;;
49340;SDS011;35209;51.050;13.678;2023-03-14T04:29:18;0.40;;;0.20;;
49340;SDS011;35209;51.050;13.678;2023-03-14T04:34:21;0.63;;;0.35;;
49340;SDS011;35209;51.050;13.678;2023-03-14T04:39:26;1.30;;;0.32;;
49340;SDS011;35209;51.050;13.678;2023-03-14T04:44:38;1.25;;;0.22;;
49340;SDS011;35209;51.050;13.678;2023-03-14T04:49:41;0.55;;;0.30;;
49340;SDS011;35209;51.050;13.678;2023-03-14T04:54:45;3.00;;;0.60;;
49340;SDS011;35209;51.050;13.678;2023-03-14T04:59:47;1.92;;;0.40;;
49340;SDS011;35209;51.050;13.678;2023-03-14T05:05:02;2.58;;;0.70;;
49340;SDS011;35209;51.050;13.678;2023-03-14T05:10:24;1.85;;;0.60;;
49340;SDS011;35209;51.050;13.678;2023-03-14T05:15:47;1.75;;;0.60;;
49340;SDS011;35209;51.050;13.678;2023-03-14T05:21:21;2.65;;;0.73;;
49340;SDS011;35209;51.050;13.678;2023-03-14T05:26:43;1.75;;;0.70;;
49340;SDS011;35209;51.050;13.678;2023-03-14T05:32:12;1.45;;;0.63;;
49340;SDS011;35209;51.050;13.678;2023-03-14T05:37:36;2.97;;;0.80;;
49340;SDS011;35209;51.050;13.678;2023-03-14T05:43:01;1.17;;;0.80;;
49340;SDS011;35209;51.050;13.678;2023-03-14T05:48:13;2.28;;;0.68;;
49340;SDS011;35209;51.050;13.678;2023-03-14T05:53:34;3.58;;;0.88;;
49340;SDS011;35209;51.050;13.678;2023-03-14T05:58:55;2.55;;;0.85;;
49340;SDS011;35209;51.050;13.678;2023-03-14T06:04:04;2.92;;;0.82;;
49340;SDS011;35209;51.050;13.678;2023-03-14T06:09:07;2.95;;;0.55;;
49340;SDS011;35209;51.050;13.678;2023-03-14T06:14:12;4.13;;;0.90;;
49340;SDS011;35209;51.050;13.678;2023-03-14T06:19:17;3.38;;;0.80;;
49340;SDS011;35209;51.050;13.678;2023-03-14T06:24:19;1.63;;;0.70;;
49340;SDS011;35209;51.050;13.678;2023-03-14T06:29:24;3.78;;;1.10;;
49340;SDS011;35209;51.050;13.678;2023-03-14T06:34:26;3.40;;;1.00;;
49340;SDS011;35209;51.050;13.678;2023-03-14T06:39:28;3.35;;;0.95;;
49340;SDS011;35209;51.050;13.678;2023-03-14T06:44:38;3.53;;;0.85;;
49340;SDS011;35209;51.050;13.678;2023-03-14T06:49:40;4.53;;;1.10;;
49340;SDS011;35209;51.050;13.678;2023-03-14T06:54:42;2.13;;;0.70;;
49340;SDS011;35209;51.050;13.678;2023-03-14T06:59:43;1.52;;;0.63;;
49340;SDS011;35209;51.050;13.678;2023-03-14T07:04:45;2.88;;;0.68;;
49340;SDS011;35209;51.050;13.678;2023-03-14T07:09:47;3.63;;;0.80;;
49340;SDS011;35209;51.050;13.678;2023-03-14T07:14:49;3.80;;;1.50;;
49340;SDS011;35209;51.050;13.678;2023-03-14T07:19:52;2.28;;;0.60;;
49340;SDS011;35209;51.050;13.678;2023-03-14T07:24:54;2.92;;;0.73;;
49340;SDS011;35209;51.050;13.678;2023-03-14T07:29:57;1.55;;;0.50;;
49340;SDS011;35209;51.050;13.678;2023-03-14T07:34:59;3.72;;;0.68;;
49340;SDS011;35209;51.050;13.678;2023-03-14T07:40:01;1.30;;;0.55;;
49340;SDS011;35209;51.050;13.678;2023-03-14T07:45:04;2.42;;;0.65;;
49340;SDS011;35209;51.050;13.678;2023-03-14T07:50:08;3.28;;;0.88;;
49340;SDS011;35209;51.050;13.678;2023-03-14T07:55:10;2.22;;;1.33;;
49340;SDS011;35209;51.050;13.678;2023-03-14T08:00:14;2.63;;;0.80;;
49340;SDS011;35209;51.050;13.678;2023-03-14T08:05:16;1.50;;;0.65;;
49340;SDS011;35209;51.050;13.678;2023-03-14T08:10:18;2.78;;;0.70;;
49340;SDS011;35209;51.050;13.678;2023-03-14T08:15:27;4.38;;;0.70;;
49340;SDS011;35209;51.050;13.678;2023-03-14T08:20:31;1.60;;;0.70;;
49340;SDS011;35209;51.050;13.678;2023-03-14T08:25:33;1.05;;;0.40;;
49340;SDS011;35209;51.050;13.678;2023-03-14T08:30:35;2.95;;;0.55;;
49340;SDS011;35209;51.050;13.678;2023-03-14T08:35:37;1.15;;;0.70;;
49340;SDS011;35209;51.050;13.678;2023-03-14T08:40:40;1.25;;;0.40;;
49340;SDS011;35209;51.050;13.678;2023-03-14T08:45:41;1.90;;;0.70;;
49340;SDS011;35209;51.050;13.678;2023-03-14T08:50:43;0.95;;;0.52;;
49340;SDS011;35209;51.050;13.678;2023-03-14T08:55:45;1.25;;;0.35;;
49340;SDS011;35209;51.050;13.678;2023-03-14T09:00:46;1.58;;;0.40;;
49340;SDS011;35209;51.050;13.678;2023-03-14T09:05:49;1.10;;;0.50;;
49340;SDS011;35209;51.050;13.678;2023-03-14T09:10:51;1.63;;;0.40;;
49340;SDS011;35209;51.050;13.678;2023-03-14T09:15:53;4.38;;;0.75;;
49340;SDS011;35209;51.050;13.678;2023-03-14T09:20:56;2.25;;;0.57;;
49340;SDS011;35209;51.050;13.678;2023-03-14T09:25:58;1.25;;;0.60;;
49340;SDS011;35209;51.050;13.678;2023-03-14T09:36:29;1.15;;;0.40;;
49340;SDS011;35209;51.050;13.678;2023-03-14T09:41:33;2.05;;;0.40;;
49340;SDS011;35209;51.050;13.678;2023-03-14T09:46:38;1.13;;;0.60;;
49340;SDS011;35209;51.050;13.678;2023-03-14T09:51:41;3.45;;;0.60;;
49340;SDS011;35209;51.050;13.678;2023-03-14T09:56:45;1.65;;;0.50;;
49340;SDS011;35209;51.050;13.678;2023-03-14T10:01:50;1.70;;;0.50;;
49340;SDS011;35209;51.050;13.678;2023-03-14T10:06:51;0.80;;;0.40;;
49340;SDS011;35209;51.050;13.678;2023-03-14T10:11:54;0.35;;;0.30;;
49340;SDS011;35209;51.050;13.678;2023-03-14T10:17:04;1.48;;;0.45;;
49340;SDS011;35209;51.050;13.678;2023-03-14T10:22:12;1.20;;;0.30;;
49340;SDS011;35209;51.050;13.678;2023-03-14T10:27:26;0.82;;;0.30;;
49340;SDS011;35209;51.050;13.678;2023-03-14T10:32:37;1.65;;;0.45;;
49340;SDS011;35209;51.050;13.678;2023-03-14T10:43:04;0.75;;;0.40;;
49340;SDS011;35209;51.050;13.678;2023-03-14T10:53:33;1.33;;;0.47;;
49340;SDS011;35209;51.050;13.678;2023-03-14T10:58:42;1.45;;;0.40;;
49340;SDS011;35209;51.050;13.678;2023-03-14T11:14:38;0.95;;;0.30;;
49340;SDS011;35209;51.050;13.678;2023-03-14T11:20:12;1.73;;;0.50;;
49340;SDS011;35209;51.050;13.678;2023-03-14T11:25:26;1.33;;;0.55;;
49340;SDS011;35209;51.050;13.678;2023-03-14T11:30:35;1.48;;;0.40;;
49340;SDS011;35209;51.050;13.678;2023-03-14T11:35:58;1.27;;;0.40;;
49340;SDS011;35209;51.050;13.678;2023-03-14T11:41:08;1.70;;;0.50;;
49340;SDS011;35209;51.050;13.678;2023-03-14T11:46:25;0.95;;;0.40;;
49340;SDS011;35209;51.050;13.678;2023-03-14T11:51:29;1.75;;;0.60;;
49340;SDS011;35209;51.050;13.678;2023-03-14T11:56:52;2.20;;;0.75;;
49340;SDS011;35209;51.050;13.678;2023-03-14T12:13:10;1.02;;;0.40;;
49340;SDS011;35209;51.050;13.678;2023-03-14T12:18:18;2.20;;;0.68;;
49340;SDS011;35209;51.050;13.678;2023-03-14T12:23:22;2.90;;;0.57;;
49340;SDS011;35209;51.050;13.678;2023-03-14T12:28:35;1.88;;;0.60;;
49340;SDS011;35209;51.050;13.678;2023-03-14T12:33:37;4.72;;;0.50;;
49340;SDS011;35209;51.050;13.678;2023-03-14T12:44:49;1.60;;;0.20;;
49340;SDS011;35209;51.050;13.678;2023-03-14T12:49:31;0.45;;;0.10;;
49340;SDS011;35209;51.050;13.678;2023-03-14T12:54:40;1.08;;;0.20;;
49340;SDS011;35209;51.050;13.678;2023-03-14T12:59:51;0.43;;;0.35;;
49340;SDS011;35209;51.050;13.678;2023-03-14T13:05:16;1.00;;;0.38;;
49340;SDS011;35209;51.050;13.678;2023-03-14T13:10:30;1.27;;;0.20;;
49340;SDS011;35209;51.050;13.678;2023-03-14T13:15:42;0.80;;;0.22;;
49340;SDS011;35209;51.050;13.678;2023-03-14T13:25:55;0.90;;;0.22;;
49340;SDS011;35209;51.050;13.678;2023-03-14T13:30:59;0.65;;;0.20;;
49340;SDS011;35209;51.050;13.678;2023-03-14T13:36:04;0.20;;;0.20;;
49340;SDS011;35209;51.050;13.678;2023-03-14T13:41:07;0.82;;;0.20;;
49340;SDS011;35209;51.050;13.678;2023-03-14T13:46:22;0.70;;;0.30;;
49340;SDS011;35209;51.050;13.678;2023-03-14T13:51:26;1.83;;;0.30;;
49340;SDS011;35209;51.050;13.678;2023-03-14T13:56:32;1.57;;;0.20;;
49340;SDS011;35209;51.050;13.678;2023-03-14T14:01:35;0.32;;;0.10;;
49340;SDS011;35209;51.050;13.678;2023-03-14T14:06:46;0.63;;;0.28;;
49340;SDS011;35209;51.050;13.678;2023-03-14T14:17:18;0.22;;;0.20;;
49340;SDS011;35209;51.050;13.678;2023-03-14T14:22:23;1.20;;;0.20;;
49340;SDS011;35209;51.050;13.678;2023-03-14T14:27:32;0.28;;;0.20;;
49340;SDS011;35209;51.050;13.678;2023-03-14T14:32:38;0.20;;;0.17;;
49340;SDS011;35209;51.050;13.678;2023-03-14T14:37:42;1.13;;;0.30;;
49340;SDS011;35209;51.050;13.678;2023-03-14T14:42:45;0.32;;;0.20;;
49340;SDS011;35209;51.050;13.678;2023-03-14T14:47:52;0.60;;;0.20;;
49340;SDS011;35209;51.050;13.678;2023-03-14T14:53:48;0.10;;;0.10;;
49340;SDS011;35209;51.050;13.678;2023-03-14T14:58:35;2.30;;;0.30;;
49340;SDS011;35209;51.050;13.678;2023-03-14T15:03:42;0.15;;;0.10;;
49340;SDS011;35209;51.050;13.678;2023-03-14T15:08:46;0.77;;;0.35;;
49340;SDS011;35209;51.050;13.678;2023-03-14T15:13:50;0.68;;;0.35;;
49340;SDS011;35209;51.050;13.678;2023-03-14T15:18:54;1.13;;;0.80;;
49340;SDS011;35209;51.050;13.678;2023-03-14T15:23:58;28.35;;;17.20;;
49340;SDS011;35209;51.050;13.678;2023-03-14T15:29:00;1.00;;;0.40;;
49340;SDS011;35209;51.050;13.678;2023-03-14T15:34:02;5.63;;;4.45;;
49340;SDS011;35209;51.050;13.678;2023-03-14T15:39:05;2.28;;;1.58;;
49340;SDS011;35209;51.050;13.678;2023-03-14T15:44:08;0.77;;;0.73;;
49340;SDS011;35209;51.050;13.678;2023-03-14T15:49:09;0.38;;;0.28;;
49340;SDS011;35209;51.050;13.678;2023-03-14T15:54:11;3.50;;;3.30;;
49340;SDS011;35209;51.050;13.678;2023-03-14T15:59:13;0.95;;;0.30;;
49340;SDS011;35209;51.050;13.678;2023-03-14T16:04:14;0.45;;;0.30;;
49340;SDS011;35209;51.050;13.678;2023-03-14T16:09:16;0.50;;;0.32;;
49340;SDS011;35209;51.050;13.678;2023-03-14T16:14:18;0.47;;;0.40;;
49340;SDS011;35209;51.050;13.678;2023-03-14T16:19:20;1.60;;;0.20;;
49340;SDS011;35209;51.050;13.678;2023-03-14T16:24:21;0.20;;;0.10;;
49340;SDS011;35209;51.050;13.678;2023-03-14T16:29:23;0.52;;;0.20;;
49340;SDS011;35209;51.050;13.678;2023-03-14T16:34:25;0.52;;;0.20;;
49340;SDS011;35209;51.050;13.678;2023-03-14T16:39:27;0.82;;;0.35;;
49340;SDS011;35209;51.050;13.678;2023-03-14T16:44:32;0.85;;;0.10;;
49340;SDS011;35209;51.050;13.678;2023-03-14T16:49:34;0.50;;;0.40;;
49340;SDS011;35209;51.050;13.678;2023-03-14T16:54:36;1.10;;;0.30;;
49340;SDS011;35209;51.050;13.678;2023-03-14T16:59:37;1.02;;;0.35;;
49340;SDS011;35209;51.050;13.678;2023-03-14T17:04:39;0.45;;;0.40;;
49340;SDS011;35209;51.050;13.678;2023-03-14T17:09:42;1.48;;;0.35;;
49340;SDS011;35209;51.050;13.678;2023-03-14T17:14:44;0.60;;;0.40;;
49340;SDS011;35209;51.050;13.678;2023-03-14T17:19:46;0.20;;;0.20;;
49340;SDS011;35209;51.050;13.678;2023-03-14T17:24:47;0.35;;;0.30;;
49340;SDS011;35209;51.050;13.678;2023-03-14T17:29:49;0.50;;;0.50;;
49340;SDS011;35209;51.050;13.678;2023-03-14T17:34:51;0.85;;;0.70;;
49340;SDS011;35209;51.050;13.678;2023-03-14T17:39:54;0.30;;;0.20;;
49340;SDS011;35209;51.050;13.678;2023-03-14T17:44:56;0.55;;;0.40;;
49340;SDS011;35209;51.050;13.678;2023-03-14T17:49:58;0.35;;;0.28;;
49340;SDS011;35209;51.050;13.678;2023-03-14T17:55:05;0.33;;;0.30;;
49340;SDS011;35209;51.050;13.678;2023-03-14T18:00:09;1.90;;;0.65;;
49340;SDS011;35209;51.050;13.678;2023-03-14T18:05:11;2.58;;;0.75;;
49340;SDS011;35209;51.050;13.678;2023-03-14T18:10:13;3.60;;;1.05;;
49340;SDS011;35209;51.050;13.678;2023-03-14T18:15:17;2.88;;;1.13;;
49340;SDS011;35209;51.050;13.678;2023-03-14T18:20:19;3.65;;;1.30;;
49340;SDS011;35209;51.050;13.678;2023-03-14T18:25:21;4.38;;;1.08;;
49340;SDS011;35209;51.050;13.678;2023-03-14T18:30:23;5.15;;;1.40;;
49340;SDS011;35209;51.050;13.678;2023-03-14T18:35:24;1.88;;;0.95;;
49340;SDS011;35209;51.050;13.678;2023-03-14T18:40:26;1.65;;;1.02;;
49340;SDS011;35209;51.050;13.678;2023-03-14T18:45:28;1.10;;;0.80;;
49340;SDS011;35209;51.050;13.678;2023-03-14T18:50:31;1.67;;;0.80;;
49340;SDS011;35209;51.050;13.678;2023-03-14T18:55:33;3.45;;;1.75;;
49340;SDS011;35209;51.050;13.678;2023-03-14T19:00:34;3.50;;;1.20;;
49340;SDS011;35209;51.050;13.678;2023-03-14T19:05:41;2.08;;;1.00;;
49340;SDS011;35209;51.050;13.678;2023-03-14T19:10:44;4.10;;;2.08;;
49340;SDS011;35209;51.050;13.678;2023-03-14T19:15:45;6.00;;;1.88;;
49340;SDS011;35209;51.050;13.678;2023-03-14T19:21:24;3.38;;;1.00;;
49340;SDS011;35209;51.050;13.678;2023-03-14T19:26:25;3.33;;;0.90;;
49340;SDS011;35209;51.050;13.678;2023-03-14T19:31:30;4.50;;;1.52;;
49340;SDS011;35209;51.050;13.678;2023-03-14T19:36:33;6.20;;;1.52;;
49340;SDS011;35209;51.050;13.678;2023-03-14T19:41:36;9.52;;;2.40;;
49340;SDS011;35209;51.050;13.678;2023-03-14T19:46:38;9.45;;;1.90;;
49340;SDS011;35209;51.050;13.678;2023-03-14T19:51:40;9.82;;;1.67;;
49340;SDS011;35209;51.050;13.678;2023-03-14T19:56:41;6.63;;;1.60;;
49340;SDS011;35209;51.050;13.678;2023-03-14T20:01:43;7.75;;;1.70;;
49340;SDS011;35209;51.050;13.678;2023-03-14T20:06:49;10.52;;;1.77;;
49340;SDS011;35209;51.050;13.678;2023-03-14T20:11:53;7.93;;;1.80;;
49340;SDS011;35209;51.050;13.678;2023-03-14T20:16:55;5.13;;;1.70;;
49340;SDS011;35209;51.050;13.678;2023-03-14T20:21:57;8.05;;;2.45;;
49340;SDS011;35209;51.050;13.678;2023-03-14T20:26:59;9.38;;;2.00;;
49340;SDS011;35209;51.050;13.678;2023-03-14T20:32:01;9.65;;;1.75;;
49340;SDS011;35209;51.050;13.678;2023-03-14T20:37:03;8.43;;;2.35;;
49340;SDS011;35209;51.050;13.678;2023-03-14T20:42:05;8.07;;;1.85;;
49340;SDS011;35209;51.050;13.678;2023-03-14T20:47:06;11.65;;;2.38;;
49340;SDS011;35209;51.050;13.678;2023-03-14T20:52:08;7.07;;;2.50;;
49340;SDS011;35209;51.050;13.678;2023-03-14T20:57:12;5.50;;;1.30;;
49340;SDS011;35209;51.050;13.678;2023-03-14T21:02:15;11.43;;;2.05;;
49340;SDS011;35209;51.050;13.678;2023-03-14T21:07:17;7.43;;;1.50;;
49340;SDS011;35209;51.050;13.678;2023-03-14T21:12:20;9.73;;;1.98;;
49340;SDS011;35209;51.050;13.678;2023-03-14T21:17:22;13.27;;;1.60;;
49340;SDS011;35209;51.050;13.678;2023-03-14T21:22:24;10.63;;;1.30;;
49340;SDS011;35209;51.050;13.678;2023-03-14T21:27:29;10.13;;;1.80;;
49340;SDS011;35209;51.050;13.678;2023-03-14T21:32:31;9.48;;;1.60;;
49340;SDS011;35209;51.050;13.678;2023-03-14T21:37:33;8.00;;;2.00;;
49340;SDS011;35209;51.050;13.678;2023-03-14T21:42:35;4.45;;;1.40;;
49340;SDS011;35209;51.050;13.678;2023-03-14T21:47:39;11.75;;;1.67;;
49340;SDS011;35209;51.050;13.678;2023-03-14T21:52:45;9.38;;;2.00;;
49340;SDS011;35209;51.050;13.678;2023-03-14T21:57:48;6.00;;;1.45;;
49340;SDS011;35209;51.050;13.678;2023-03-14T22:02:49;19.00;;;1.63;;
49340;SDS011;35209;51.050;13.678;2023-03-14T22:08:13;13.82;;;2.03;;
49340;SDS011;35209;51.050;13.678;2023-03-14T22:13:18;5.88;;;2.17;;
49340;SDS011;35209;51.050;13.678;2023-03-14T22:18:20;8.05;;;1.63;;
49340;SDS011;35209;51.050;13.678;2023-03-14T22:23:22;9.38;;;1.65;;
49340;SDS011;35209;51.050;13.678;2023-03-14T22:28:24;7.57;;;1.70;;
49340;SDS011;35209;51.050;13.678;2023-03-14T22:33:26;12.45;;;1.58;;
49340;SDS011;35209;51.050;13.678;2023-03-14T22:38:27;8.90;;;1.75;;
49340;SDS011;35209;51.050;13.678;2023-03-14T22:43:29;9.93;;;1.77;;
49340;SDS011;35209;51.050;13.678;2023-03-14T22:48:32;5.88;;;1.20;;
49340;SDS011;35209;51.050;13.678;2023-03-14T22:53:34;7.07;;;1.60;;
49340;SDS011;35209;51.050;13.678;2023-03-14T22:58:37;8.27;;;1.88;;
49340;SDS011;35209;51.050;13.678;2023-03-14T23:03:38;13.15;;;1.67;;
49340;SDS011;35209;51.050;13.678;2023-03-14T23:08:40;13.75;;;2.30;;
49340;SDS011;35209;51.050;13.678;2023-03-14T23:13:42;4.65;;;1.13;;
49340;SDS011;35209;51.050;13.678;2023-03-14T23:18:44;5.63;;;1.80;;
49340;SDS011;35209;51.050;13.678;2023-03-14T23:23:46;7.07;;;1.50;;
49340;SDS011;35209;51.050;13.678;2023-03-14T23:28:48;10.95;;;1.42;;
49340;SDS011;35209;51.050;13.678;2023-03-14T23:33:51;6.65;;;1.20;;
49340;SDS011;35209;51.050;13.678;2023-03-14T23:38:52;14.93;;;1.45;;
49340;SDS011;35209;51.050;13.678;2023-03-14T23:43:54;6.20;;;1.83;;
49340;SDS011;35209;51.050;13.678;2023-03-14T23:48:56;8.65;;;1.35;;
49340;SDS011;35209;51.050;13.678;2023-03-14T23:53:58;9.43;;;1.90;;
49340;SDS011;35209;51.050;13.678;2023-03-14T23:59:00;8.40;;;1.40;;
